Bowdle, South Dakota
Current Conditions -  °F | °C
As of 12:52 PM on Friday 31 Oct 2014 (Local Time) from KMBG Reporting Station
Clear Clear  
Wind Chill: 27°   Ceiling: Unl
Heat Index: 37°   Visibility: 10mi
Dew Point: 18°   Wind: 20mph
Humidity: 46%   Direction: 160°SSE
Pressure: 30.44"   Gusts: 28mph
Location:  45.45°N, 99.65°W
Report Text: KMBG 311752Z AUTO 16017G24KT 10SM CLR 03/M08 A3044 RMK AO2 SLP329 T00281078 10028 21078 58021
Loading
Personal Weather Stations






























Interactive Weather Map
Tropical Storm Tracking
New forecast layout! Learn more

10-Day Weather Forecast

Advertisements
Track Severe Weather on mobile